LCRA Airport Information

Runway Information
Runway 10 Length 9002 ft width 200 ft
Elevation 71 ft Threshold 0 ft Heading 108
Runway 28 Length 9002 ft Width 200 ft
Elevation 76 ft Threshold 0 ft Heading 288
Airport Frequencies
Type APP Name APP Frequency 122.1 MHZ
Type ATIS Name ATIS Frequency 28.82 MHZ
Type DIR Name DIRECTOR Frequency 122.1 MHZ
Type GND Name GND Frequency 26.1 MHZ
Type OPS Name OPS Frequency 23.405 MHZ
Type TWR Name TWR Frequency 122.1 MHZ
Airport Navaids
Type TACAN Name Akrotiri Frequency 116000 KHZ
Airport Weather Information & NOTAM
ADDS - METARS form results

(1708 UTC 26 May 2022)
Data provider http://aviationweather.gov/metar/data/
 
METAR text: LCRA 261650Z 26007KT CAVOK 23/18 Q1014 NOSIG
Conditions at: LCRA (AKROTIRI (RAF) , CY) observed 1650 UTC 26 May 2022
Temperature: 23.0°C (73°F)
Dewpoint: 18.0°C (64°F) [RH = 73%]
Pressure (altimeter): 29.94 inches Hg (1014.0 mb)
Winds: from the W (260 degrees) at 8 MPH (7 knots; 3.6 m/s)
Visibility: 6 or more miles (10+ km)
Ceiling: ceiling and visibility are OK
Clouds: unknown
Weather: no significant weather observed at this time

METAR text: LCRA 261621Z 25007KT CAVOK 24/18 Q1014 NOSIG
Conditions at: LCRA (AKROTIRI (RAF) , CY) observed 1621 UTC 26 May 2022
Temperature: 24.0°C (75°F)
Dewpoint: 18.0°C (64°F) [RH = 69%]
Pressure (altimeter): 29.94 inches Hg (1014.0 mb)
Winds: from the WSW (250 degrees) at 8 MPH (7 knots; 3.6 m/s)
Visibility: 6 or more miles (10+ km)
Ceiling: ceiling and visibility are OK
Clouds: unknown
Weather: no significant weather observed at this time

Forecast for: LCRA (AKROTIRI (RAF) , CY)
Text: TAF LCRA 261645Z 2618/2712 25008KT CAVOK
Forecast period: 1800 to 2100 UTC 26 May 2022
Forecast type: FROM: standard forecast or significant change
Winds: from the WSW (250 degrees) at 9 MPH (8 knots; 4.1 m/s)
Visibility: 6 or more miles (10+ km)
Ceiling: unknown
Clouds: missing
Weather: NSW  (no significant weather)
Text: BECMG 2621/2624 05005KT
Forecast period: 2100 UTC 26 May 2022 to 0900 UTC 27 May 2022
Forecast type: BECOMING: Conditions expected to become as follows by 0000 UTC 27 May 2022
Winds: from the NE (50 degrees) at 6 MPH (5 knots; 2.6 m/s)
Visibility: 6 or more miles (10+ km)
Ceiling: unknown
Clouds: missing
Weather: NSW  (no significant weather)
Text: BECMG 2709/2712 24008KT
Forecast period: 0900 to 1200 UTC 27 May 2022
Forecast type: BECOMING: Conditions expected to become as follows by 1200 UTC 27 May 2022
Winds: from the WSW (240 degrees) at 9 MPH (8 knots; 4.1 m/s)
Visibility: 6 or more miles (10+ km)
Ceiling: unknown
Clouds: missing
Weather: NSW  (no significant weather)